createdAt,value
2022-09-23T00:01:09.639Z,1.10
2022-09-23T00:03:38.866Z,1.17
2022-09-23T00:06:08.543Z,1.50
2022-09-23T00:08:35.210Z,1.10
2022-09-23T00:11:10.551Z,1.30
2022-09-23T00:13:39.179Z,1.20
2022-09-23T00:16:08.092Z,1.15
2022-09-23T00:18:34.648Z,1.23
2022-09-23T00:21:10.872Z,1.38
2022-09-23T00:23:38.488Z,0.90
2022-09-23T00:26:07.619Z,1.00
2022-09-23T00:28:35.154Z,0.70
2022-09-23T00:31:06.924Z,0.90
2022-09-23T00:33:33.531Z,1.20
2022-09-23T00:36:01.930Z,0.98
2022-09-23T00:38:28.578Z,1.10
2022-09-23T00:40:55.198Z,1.13
2022-09-23T00:43:40.932Z,0.90
2022-09-23T00:46:14.286Z,1.33
2022-09-23T00:48:43.956Z,1.20
2022-09-23T00:51:17.883Z,1.20
2022-09-23T00:53:47.004Z,1.42
2022-09-23T00:56:14.326Z,1.25
2022-09-23T00:58:43.287Z,1.45
2022-09-23T01:01:11.943Z,1.40
2022-09-23T01:03:38.534Z,1.30
2022-09-23T01:06:05.624Z,1.40
2022-09-23T01:08:32.292Z,1.40
2022-09-23T01:11:10.120Z,1.38
2022-09-23T01:13:36.646Z,1.40
2022-09-23T01:16:31.410Z,1.40
2022-09-23T01:19:32.234Z,1.23
2022-09-23T01:22:05.424Z,1.27
2022-09-23T01:24:46.094Z,1.58
2022-09-23T01:27:41.560Z,1.40
2022-09-23T01:30:11.836Z,1.63
2022-09-23T01:33:01.379Z,1.45
2022-09-23T01:35:37.725Z,1.80
2022-09-23T01:38:13.070Z,1.40
2022-09-23T01:41:09.900Z,1.25
2022-09-23T01:43:58.063Z,1.55
2022-09-23T01:46:29.810Z,1.35
2022-09-23T01:49:22.116Z,1.50
2022-09-23T01:52:01.534Z,1.40
2022-09-23T01:54:42.313Z,1.40
2022-09-23T01:57:18.872Z,1.48
2022-09-23T01:59:55.856Z,1.38
2022-09-23T02:02:35.450Z,1.23
2022-09-23T02:05:18.330Z,1.30
2022-09-23T02:07:58.021Z,1.70
2022-09-23T02:10:31.041Z,1.83
2022-09-23T02:13:05.479Z,1.20
2022-09-23T02:15:36.899Z,1.33
2022-09-23T02:18:17.911Z,1.10
2022-09-23T02:20:44.976Z,1.65
2022-09-23T02:23:23.426Z,1.20
2022-09-23T02:26:08.824Z,1.35
2022-09-23T02:29:08.348Z,1.20
2022-09-23T02:31:45.769Z,1.13
2022-09-23T02:34:42.560Z,1.00
2022-09-23T02:37:37.178Z,0.90
2022-09-23T02:40:26.289Z,1.42
2022-09-23T02:43:19.789Z,1.40
2022-09-23T02:45:47.439Z,1.20
2022-09-23T02:48:18.724Z,1.02
2022-09-23T02:50:47.760Z,1.48
2022-09-23T02:53:16.174Z,1.35
2022-09-23T02:55:43.526Z,1.10
2022-09-23T02:58:13.840Z,1.20
2022-09-23T03:00:59.032Z,1.25
2022-09-23T03:03:45.148Z,1.65
2022-09-23T03:06:39.782Z,1.08
2022-09-23T03:09:13.272Z,1.60
2022-09-23T03:11:48.158Z,1.13
2022-09-23T03:14:25.592Z,1.25
2022-09-23T03:16:52.107Z,1.10
2022-09-23T03:19:23.545Z,1.40
2022-09-23T03:22:08.160Z,1.30
2022-09-23T03:24:38.135Z,1.30
2022-09-23T03:27:13.706Z,1.27
2022-09-23T03:29:45.609Z,1.40
2022-09-23T03:32:14.612Z,1.35
2022-09-23T03:34:43.859Z,1.70
2022-09-23T03:37:19.868Z,1.48
2022-09-23T03:40:15.003Z,1.50
2022-09-23T03:42:42.324Z,1.20
2022-09-23T03:45:14.623Z,1.60
2022-09-23T03:47:42.280Z,1.40
2022-09-23T03:50:09.283Z,1.35
2022-09-23T03:52:35.818Z,1.38
2022-09-23T03:55:02.408Z,1.05
2022-09-23T03:57:28.944Z,1.50
2022-09-23T03:59:55.509Z,1.35
2022-09-23T04:02:22.128Z,1.25
2022-09-23T04:04:48.844Z,1.30
2022-09-23T04:07:15.663Z,1.50
2022-09-23T04:09:42.299Z,1.20
2022-09-23T04:12:13.435Z,1.33
2022-09-23T04:14:40.062Z,1.42
2022-09-23T04:17:06.620Z,1.35
2022-09-23T04:19:33.177Z,1.40
2022-09-23T04:21:59.874Z,1.50
2022-09-23T04:24:26.554Z,1.40
2022-09-23T04:26:55.257Z,1.58
2022-09-23T04:29:22.583Z,1.30
2022-09-23T04:31:50.046Z,1.35
2022-09-23T04:34:17.698Z,1.45
2022-09-23T04:36:45.332Z,1.35
2022-09-23T04:39:12.566Z,1.40
2022-09-23T04:41:39.084Z,1.20
2022-09-23T04:44:05.651Z,1.50
2022-09-23T04:46:32.407Z,1.50
2022-09-23T04:48:58.995Z,1.30
2022-09-23T04:51:26.940Z,1.20
2022-09-23T04:53:55.052Z,1.30
2022-09-23T04:56:26.821Z,1.92
2022-09-23T04:58:54.263Z,1.30
2022-09-23T05:01:27.118Z,1.38
2022-09-23T05:04:01.556Z,1.00
2022-09-23T05:06:29.697Z,1.50
2022-09-23T05:08:58.278Z,1.10
2022-09-23T05:11:25.750Z,1.02
2022-09-23T05:13:54.093Z,1.33
2022-09-23T05:16:25.615Z,1.20
2022-09-23T05:18:52.718Z,1.20
2022-09-23T05:21:21.845Z,1.20
2022-09-23T05:23:58.799Z,1.20
2022-09-23T05:26:28.117Z,1.20
2022-09-23T05:28:55.178Z,1.15
2022-09-23T05:31:24.665Z,1.20
2022-09-23T05:33:53.494Z,1.02
2022-09-23T05:36:22.093Z,1.00
2022-09-23T05:38:50.065Z,1.20
2022-09-23T05:41:17.794Z,1.20
2022-09-23T05:43:44.743Z,1.17
2022-09-23T05:46:23.372Z,1.13
2022-09-23T05:48:50.436Z,1.00
2022-09-23T05:51:20.080Z,1.00
2022-09-23T05:53:47.856Z,1.00
2022-09-23T05:56:16.708Z,1.02
2022-09-23T05:58:44.103Z,1.10
2022-09-23T06:01:12.869Z,1.02
2022-09-23T06:03:40.030Z,1.00
2022-09-23T06:06:11.964Z,1.10
2022-09-23T06:08:38.876Z,0.95
2022-09-23T06:11:07.667Z,0.93
2022-09-23T06:13:39.005Z,0.85
2022-09-23T06:16:08.040Z,1.30
2022-09-23T06:18:35.541Z,1.02
2022-09-23T06:21:03.779Z,1.02
2022-09-23T06:23:31.306Z,1.13
2022-09-23T06:26:02.475Z,0.90
2022-09-23T06:28:33.863Z,0.80
2022-09-23T06:31:03.247Z,1.08
2022-09-23T06:33:36.812Z,0.98
2022-09-23T06:36:06.347Z,1.08
2022-09-23T06:38:36.262Z,0.90
2022-09-23T06:41:03.485Z,0.80
2022-09-23T06:43:30.880Z,0.95
2022-09-23T06:46:00.003Z,0.95
2022-09-23T06:48:27.816Z,0.80
2022-09-23T06:50:58.402Z,1.15
2022-09-23T06:53:25.545Z,1.00
2022-09-23T06:56:03.768Z,0.90
2022-09-23T06:58:31.952Z,1.40
2022-09-23T07:01:03.131Z,1.10
2022-09-23T07:03:29.842Z,1.10
2022-09-23T07:05:56.609Z,0.98
2022-09-23T07:08:24.883Z,0.93
2022-09-23T07:10:53.067Z,1.27
2022-09-23T07:13:19.650Z,0.80
2022-09-23T07:15:53.796Z,1.20
2022-09-23T07:18:23.829Z,1.20
2022-09-23T07:20:50.935Z,1.10
2022-09-23T07:23:17.948Z,1.13
2022-09-23T07:25:46.768Z,1.02
2022-09-23T07:28:13.692Z,0.98
2022-09-23T07:30:49.172Z,1.58
2022-09-23T07:33:30.830Z,1.17
2022-09-23T07:35:58.582Z,1.52
2022-09-23T07:38:30.366Z,1.00
2022-09-23T07:41:11.134Z,1.17
2022-09-23T07:43:37.875Z,1.27
2022-09-23T07:46:08.728Z,1.33
2022-09-23T07:48:36.345Z,1.25
2022-09-23T07:51:29.060Z,1.50
2022-09-23T07:53:59.109Z,1.30
2022-09-23T07:56:28.006Z,1.20
2022-09-23T07:59:00.805Z,1.10
2022-09-23T08:01:48.706Z,1.30
2022-09-23T08:04:17.862Z,1.80
2022-09-23T08:06:47.533Z,1.23
2022-09-23T08:09:16.460Z,1.23
2022-09-23T08:11:42.978Z,1.30
2022-09-23T08:14:12.691Z,1.45
2022-09-23T08:16:40.154Z,1.20
2022-09-23T08:19:08.037Z,1.20
2022-09-23T08:21:35.256Z,1.25
2022-09-23T08:24:02.112Z,1.23
2022-09-23T08:26:28.839Z,1.48
2022-09-23T08:28:56.498Z,1.42
2022-09-23T08:31:23.684Z,1.50
2022-09-23T08:33:58.123Z,1.50
2022-09-23T08:36:25.810Z,1.20
2022-09-23T08:38:52.590Z,1.30
2022-09-23T08:41:37.732Z,1.17
2022-09-23T08:44:27.222Z,1.10
2022-09-23T08:47:04.953Z,1.05
2022-09-23T08:49:36.792Z,1.10
2022-09-23T08:52:40.275Z,1.10
2022-09-23T08:55:12.843Z,1.10
2022-09-23T08:57:57.510Z,0.83
2022-09-23T09:00:42.099Z,0.93
2022-09-23T09:03:21.335Z,1.00
2022-09-23T09:05:54.226Z,1.05
2022-09-23T09:08:31.338Z,1.08
2022-09-23T09:10:58.362Z,1.00
2022-09-23T09:13:43.252Z,1.00
2022-09-23T09:16:59.065Z,0.85
2022-09-23T09:19:52.573Z,1.10
2022-09-23T09:25:39.847Z,1.08
2022-09-23T09:28:15.954Z,0.90
2022-09-23T09:30:48.341Z,1.20
2022-09-23T09:33:18.942Z,0.82
2022-09-23T09:35:45.862Z,1.05
2022-09-23T09:38:13.088Z,0.80
2022-09-23T09:40:46.204Z,0.90
2022-09-23T09:43:26.048Z,1.10
2022-09-23T09:46:36.382Z,0.95
2022-09-23T09:49:11.878Z,0.90
2022-09-23T09:51:42.627Z,0.70
2022-09-23T09:54:27.365Z,0.80
2022-09-23T09:56:54.944Z,0.90
2022-09-23T09:59:28.728Z,0.90
2022-09-23T10:02:28.121Z,0.90
2022-09-23T10:05:03.584Z,0.70
2022-09-23T10:07:32.410Z,0.70
2022-09-23T10:10:31.882Z,0.73
2022-09-23T10:13:16.172Z,0.90
2022-09-23T10:18:29.062Z,1.00
2022-09-23T10:21:15.844Z,0.80
2022-09-23T10:23:45.570Z,0.90
2022-09-23T10:26:17.446Z,0.80
2022-09-23T10:28:55.650Z,0.80
2022-09-23T10:31:26.365Z,0.80
2022-09-23T10:33:57.239Z,0.80
2022-09-23T10:36:23.753Z,0.70
2022-09-23T10:39:16.652Z,0.80
2022-09-23T10:42:23.126Z,0.60
2022-09-23T10:45:39.855Z,0.80
2022-09-23T10:48:27.531Z,0.82
2022-09-23T10:50:57.553Z,0.70
2022-09-23T10:53:26.059Z,0.80
2022-09-23T10:56:19.707Z,0.90
2022-09-23T10:59:05.133Z,1.00
2022-09-23T11:01:48.197Z,0.90
2022-09-23T11:04:17.425Z,0.77
2022-09-23T11:07:02.369Z,0.70
2022-09-23T11:09:47.617Z,0.70
2022-09-23T11:12:38.431Z,0.90
2022-09-23T11:15:33.585Z,0.70
2022-09-23T11:18:22.117Z,0.80
2022-09-23T11:20:51.573Z,0.68
2022-09-23T11:23:37.075Z,0.70
2022-09-23T11:26:09.726Z,0.80
2022-09-23T11:29:04.121Z,0.80
2022-09-23T11:31:59.752Z,0.70
2022-09-23T11:34:26.524Z,0.88
2022-09-23T11:37:01.274Z,0.80
2022-09-23T11:40:17.757Z,0.50
2022-09-23T11:43:11.189Z,0.70
2022-09-23T11:45:45.165Z,0.60
2022-09-23T11:48:20.491Z,0.50
2022-09-23T11:50:55.198Z,0.68
2022-09-23T11:53:32.376Z,0.60
2022-09-23T11:56:31.761Z,0.98
2022-09-23T11:59:15.942Z,0.80
2022-09-23T12:01:49.776Z,0.82
2022-09-23T12:04:42.974Z,0.82
2022-09-23T12:07:26.039Z,0.80
2022-09-23T12:10:06.683Z,0.80
2022-09-23T12:13:19.258Z,0.88
2022-09-23T12:16:03.301Z,1.17
2022-09-23T12:18:39.294Z,0.77
2022-09-23T12:21:51.912Z,0.93
2022-09-23T12:24:34.865Z,0.90
2022-09-23T12:27:08.067Z,0.80
2022-09-23T12:29:36.441Z,0.80
2022-09-23T12:32:09.977Z,0.90
2022-09-23T12:34:41.874Z,0.80
2022-09-23T12:37:08.445Z,0.60
2022-09-23T12:39:38.590Z,0.70
2022-09-23T12:42:12.253Z,0.70
2022-09-23T12:44:42.077Z,0.63
2022-09-23T12:47:14.374Z,0.77
2022-09-23T12:49:44.354Z,0.82
2022-09-23T12:52:10.814Z,0.68
2022-09-23T12:54:41.512Z,0.52
2022-09-23T12:57:31.940Z,0.80
2022-09-23T13:00:18.664Z,0.70
2022-09-23T13:03:08.127Z,0.90
2022-09-23T13:06:05.988Z,0.50
2022-09-23T13:08:36.710Z,0.70
2022-09-23T13:11:07.161Z,0.50
2022-09-23T13:13:43.443Z,0.80
2022-09-23T13:16:25.196Z,0.60
2022-09-23T13:18:57.151Z,0.80
2022-09-23T13:21:42.184Z,0.65
2022-09-23T13:24:18.583Z,0.60
2022-09-23T13:26:48.273Z,0.52
2022-09-23T13:29:23.992Z,0.80
2022-09-23T13:31:50.848Z,0.60
2022-09-23T13:34:21.456Z,0.70
2022-09-23T13:36:49.032Z,0.70
2022-09-23T13:39:26.911Z,0.70
2022-09-23T13:42:00.890Z,0.60
2022-09-23T13:44:28.565Z,0.60
2022-09-23T13:47:00.550Z,0.80
2022-09-23T13:49:29.859Z,0.70
2022-09-23T13:51:57.314Z,0.60
2022-09-23T13:54:48.851Z,0.70
2022-09-23T13:57:27.468Z,0.65
2022-09-23T13:59:54.079Z,0.57
2022-09-23T14:02:20.735Z,0.73
2022-09-23T14:04:47.418Z,0.70
2022-09-23T14:07:16.831Z,0.80
2022-09-23T14:09:48.307Z,0.60
2022-09-23T14:12:21.837Z,0.50
2022-09-23T14:14:51.664Z,0.50
2022-09-23T14:17:22.832Z,0.73
2022-09-23T14:19:50.379Z,0.77
2022-09-23T14:22:28.169Z,0.70
2022-09-23T14:24:56.365Z,0.60
2022-09-23T14:27:33.789Z,0.70
2022-09-23T14:30:02.733Z,0.63
2022-09-23T14:32:30.413Z,0.73
2022-09-23T14:35:00.125Z,0.63
2022-09-23T14:37:57.102Z,0.65
2022-09-23T14:40:28.731Z,0.68
2022-09-23T14:43:16.522Z,0.85
2022-09-23T14:45:50.518Z,1.00
2022-09-23T14:48:22.327Z,0.75
2022-09-23T14:51:16.199Z,0.80
2022-09-23T14:53:48.735Z,0.60
2022-09-23T14:56:20.455Z,0.70
2022-09-23T14:59:00.714Z,0.70
2022-09-23T15:01:33.289Z,0.57
2022-09-23T15:04:14.882Z,0.60
2022-09-23T15:06:47.702Z,0.77
2022-09-23T15:09:23.565Z,0.50
2022-09-23T15:11:59.208Z,0.80
2022-09-23T15:14:37.649Z,1.38
2022-09-23T15:17:13.424Z,0.60
2022-09-23T15:19:40.500Z,0.70
2022-09-23T15:22:08.894Z,0.80
2022-09-23T15:24:45.558Z,0.50
2022-09-23T15:27:22.501Z,0.80
2022-09-23T15:29:50.123Z,0.80
2022-09-23T15:32:16.853Z,0.60
2022-09-23T15:34:43.351Z,0.80
2022-09-23T15:37:12.514Z,0.68
2022-09-23T15:39:39.039Z,0.70
2022-09-23T15:42:07.380Z,0.80
2022-09-23T15:44:36.317Z,0.65
2022-09-23T15:47:03.002Z,0.63
2022-09-23T15:49:34.541Z,0.50
2022-09-23T15:52:02.090Z,0.57
2022-09-23T15:54:29.505Z,0.68
2022-09-23T15:56:58.636Z,0.80
2022-09-23T15:59:25.157Z,0.70
2022-09-23T16:01:52.835Z,0.70
2022-09-23T16:04:19.609Z,0.60
2022-09-23T16:06:48.091Z,0.60
2022-09-23T16:09:15.694Z,0.90
2022-09-23T16:11:48.384Z,0.70
2022-09-23T16:14:16.881Z,0.38
2022-09-23T16:16:46.140Z,0.70
2022-09-23T16:19:12.773Z,0.77
2022-09-23T16:21:40.923Z,0.77
2022-09-23T16:24:18.644Z,0.65
2022-09-23T16:26:47.148Z,0.65
2022-09-23T16:29:13.778Z,0.60
2022-09-23T16:31:40.528Z,0.70
2022-09-23T16:34:07.207Z,0.70
2022-09-23T16:36:43.037Z,0.77
2022-09-23T16:39:12.590Z,0.80
2022-09-23T16:41:40.147Z,0.80
2022-09-23T16:44:09.349Z,0.70
2022-09-23T16:46:36.423Z,0.80
2022-09-23T16:49:03.233Z,0.80
2022-09-23T16:51:37.951Z,0.88
2022-09-23T16:54:11.412Z,0.90
2022-09-23T16:59:12.319Z,1.10
2022-09-23T17:01:57.450Z,0.82
2022-09-23T17:04:24.027Z,0.95
2022-09-23T17:06:52.528Z,0.90
2022-09-23T17:09:24.856Z,0.60
2022-09-23T17:12:35.090Z,0.90
2022-09-23T17:15:06.207Z,0.80
2022-09-23T17:17:37.524Z,0.90
2022-09-23T17:20:05.871Z,0.88
2022-09-23T17:22:33.796Z,1.25
2022-09-23T17:25:02.906Z,1.05
2022-09-23T17:27:29.933Z,0.90
2022-09-23T17:29:56.421Z,0.60
2022-09-23T17:32:22.983Z,0.70
2022-09-23T17:34:49.501Z,0.90
2022-09-23T17:37:16.044Z,0.88
2022-09-23T17:39:42.637Z,0.90
2022-09-23T17:42:09.659Z,1.13
2022-09-23T17:44:36.299Z,1.15
2022-09-23T17:47:03.759Z,1.02
2022-09-23T17:49:35.310Z,1.00
2022-09-23T17:52:05.669Z,1.38
2022-09-23T17:54:32.688Z,0.90
2022-09-23T17:56:59.867Z,0.90
2022-09-23T17:59:26.751Z,0.85
2022-09-23T18:01:53.992Z,1.00
2022-09-23T18:04:20.983Z,0.90
2022-09-23T18:06:47.678Z,0.98
2022-09-23T18:09:14.799Z,0.80
2022-09-23T18:11:44.261Z,0.77
2022-09-23T18:14:16.461Z,0.90
2022-09-23T18:16:45.592Z,1.10
2022-09-23T18:19:14.447Z,0.80
2022-09-23T18:21:45.502Z,1.02
2022-09-23T18:27:00.013Z,1.05
2022-09-23T18:29:26.722Z,1.13
2022-09-23T18:31:53.420Z,0.80
2022-09-23T18:34:20.414Z,0.90
2022-09-23T18:36:47.090Z,1.00
2022-09-23T18:39:13.657Z,1.00
2022-09-23T18:41:40.960Z,1.00
2022-09-23T18:44:07.562Z,1.38
2022-09-23T18:46:34.153Z,2.20
2022-09-23T18:49:18.999Z,1.58
2022-09-23T18:51:50.968Z,1.50
2022-09-23T18:54:18.379Z,1.52
2022-09-23T18:56:46.336Z,1.35
2022-09-23T18:59:16.642Z,1.17
2022-09-23T19:01:45.742Z,1.02
2022-09-23T19:04:14.154Z,1.23
2022-09-23T19:06:41.111Z,1.70
2022-09-23T19:09:07.735Z,1.33
2022-09-23T19:11:38.083Z,1.23
2022-09-23T19:14:07.385Z,1.30
2022-09-23T19:16:36.029Z,1.20
2022-09-23T19:19:04.616Z,1.15
2022-09-23T19:21:32.512Z,1.00
2022-09-23T19:24:03.418Z,1.00
2022-09-23T19:26:33.625Z,1.00
2022-09-23T19:29:02.178Z,1.10
2022-09-23T19:31:33.279Z,1.13
2022-09-23T19:34:10.070Z,1.30
2022-09-23T19:36:38.880Z,1.33
2022-09-23T19:39:08.803Z,0.98
2022-09-23T19:41:35.519Z,1.15
2022-09-23T19:44:03.526Z,1.33
2022-09-23T19:46:33.893Z,1.10
2022-09-23T19:49:00.836Z,1.10
2022-09-23T19:51:28.337Z,1.75
2022-09-23T19:53:54.930Z,1.20
2022-09-23T19:56:21.793Z,1.08
2022-09-23T19:58:54.299Z,1.10
2022-09-23T20:01:21.613Z,1.63
2022-09-23T20:03:48.983Z,1.33
2022-09-23T20:06:16.845Z,1.30
2022-09-23T20:08:44.520Z,1.40
2022-09-23T20:11:14.306Z,1.40
2022-09-23T20:13:43.945Z,1.60
2022-09-23T20:16:13.361Z,1.40
2022-09-23T20:18:40.705Z,1.67
2022-09-23T20:21:09.742Z,1.70
2022-09-23T20:23:36.405Z,2.83
2022-09-23T20:26:23.128Z,2.55
2022-09-23T20:28:50.222Z,2.85
2022-09-23T20:31:18.519Z,2.60
2022-09-23T20:33:46.165Z,1.98
2022-09-23T20:36:13.461Z,2.05
2022-09-23T20:38:40.570Z,2.20
2022-09-23T20:41:09.364Z,1.50
2022-09-23T20:43:35.848Z,1.88
2022-09-23T20:46:04.115Z,2.28
2022-09-23T20:48:31.150Z,2.22
2022-09-23T20:51:05.248Z,2.58
2022-09-23T20:53:32.614Z,2.88
2022-09-23T20:55:59.742Z,2.85
2022-09-23T20:58:29.188Z,1.98
2022-09-23T21:01:12.368Z,2.80
2022-09-23T21:03:41.628Z,1.80
2022-09-23T21:06:09.218Z,2.53
2022-09-23T21:08:37.272Z,1.67
2022-09-23T21:11:06.424Z,1.40
2022-09-23T21:13:33.562Z,1.70
2022-09-23T21:16:04.933Z,1.70
2022-09-23T21:18:32.110Z,1.65
2022-09-23T21:21:00.125Z,1.60
2022-09-23T21:23:29.858Z,1.88
2022-09-23T21:26:13.907Z,1.60
2022-09-23T21:31:22.472Z,2.72
2022-09-23T21:33:57.095Z,1.98
2022-09-23T21:36:24.680Z,1.95
2022-09-23T21:38:52.517Z,1.80
2022-09-23T21:41:19.776Z,1.60
2022-09-23T21:43:46.421Z,1.95
2022-09-23T21:46:14.908Z,1.70
2022-09-23T21:48:42.862Z,2.15
2022-09-23T21:51:17.522Z,2.00
2022-09-23T21:53:44.679Z,1.90
2022-09-23T21:56:15.695Z,2.17
2022-09-23T21:58:45.791Z,1.77
2022-09-23T22:01:17.043Z,2.25
2022-09-23T22:03:44.959Z,1.65
2022-09-23T22:06:21.501Z,2.15
2022-09-23T22:08:59.010Z,2.00
2022-09-23T22:11:46.658Z,1.83
2022-09-23T22:14:14.376Z,1.90
2022-09-23T22:16:41.838Z,1.60
2022-09-23T22:19:09.819Z,1.90
2022-09-23T22:21:38.136Z,1.80
2022-09-23T22:24:07.463Z,1.83
2022-09-23T22:26:44.484Z,1.98
2022-09-23T22:29:34.358Z,1.98
2022-09-23T22:32:20.702Z,2.03
2022-09-23T22:34:51.453Z,2.20
2022-09-23T22:37:28.727Z,2.13
2022-09-23T22:39:55.254Z,2.00
2022-09-23T22:42:22.457Z,1.70
2022-09-23T22:44:50.136Z,2.25
2022-09-23T22:47:18.026Z,1.65
2022-09-23T22:49:46.338Z,2.00
2022-09-23T22:52:14.122Z,1.67
2022-09-23T22:54:40.667Z,1.75
2022-09-23T22:57:09.054Z,1.80
2022-09-23T22:59:37.403Z,2.00
2022-09-23T23:02:05.049Z,1.80
2022-09-23T23:04:31.798Z,1.55
2022-09-23T23:06:58.896Z,2.10
2022-09-23T23:09:25.957Z,1.70
2022-09-23T23:11:52.474Z,2.00
2022-09-23T23:14:19.401Z,2.08
2022-09-23T23:16:46.718Z,2.10
2022-09-23T23:19:17.250Z,2.92
2022-09-23T23:21:45.442Z,2.42
2022-09-23T23:24:20.426Z,2.13
2022-09-23T23:26:47.602Z,2.45
2022-09-23T23:29:15.984Z,1.95
2022-09-23T23:31:43.296Z,2.30
2022-09-23T23:34:16.270Z,2.25
2022-09-23T23:36:43.917Z,2.40
2022-09-23T23:39:11.086Z,1.83
2022-09-23T23:41:39.517Z,1.90
2022-09-23T23:44:07.739Z,2.10
2022-09-23T23:46:34.638Z,1.95
2022-09-23T23:49:01.237Z,1.95
2022-09-23T23:51:28.223Z,1.70
2022-09-23T23:53:55.203Z,1.40
2022-09-23T23:56:24.471Z,1.30
2022-09-23T23:58:55.577Z,1.80
